sensor_id;sensor_type;location;lat;lon;timestamp;P1;durP1;ratioP1;P2;durP2;ratioP2
27925;SDS011;15267;47.838;12.128;2023-01-10T00:01:37;0.50;;;0.40;;
27925;SDS011;15267;47.838;12.128;2023-01-10T00:04:03;0.57;;;0.50;;
27925;SDS011;15267;47.838;12.128;2023-01-10T00:06:29;0.50;;;0.50;;
27925;SDS011;15267;47.838;12.128;2023-01-10T00:08:55;0.40;;;0.40;;
27925;SDS011;15267;47.838;12.128;2023-01-10T00:11:22;0.47;;;0.40;;
27925;SDS011;15267;47.838;12.128;2023-01-10T00:14:06;0.55;;;0.50;;
27925;SDS011;15267;47.838;12.128;2023-01-10T00:16:32;0.50;;;0.50;;
27925;SDS011;15267;47.838;12.128;2023-01-10T00:18:58;0.50;;;0.50;;
27925;SDS011;15267;47.838;12.128;2023-01-10T00:21:24;0.50;;;0.50;;
27925;SDS011;15267;47.838;12.128;2023-01-10T00:23:52;0.70;;;0.70;;
27925;SDS011;15267;47.838;12.128;2023-01-10T00:26:18;1.35;;;0.80;;
27925;SDS011;15267;47.838;12.128;2023-01-10T00:28:44;1.92;;;1.10;;
27925;SDS011;15267;47.838;12.128;2023-01-10T00:31:10;0.68;;;0.68;;
27925;SDS011;15267;47.838;12.128;2023-01-10T00:33:37;0.68;;;0.60;;
27925;SDS011;15267;47.838;12.128;2023-01-10T00:36:04;0.98;;;0.70;;
27925;SDS011;15267;47.838;12.128;2023-01-10T00:38:31;2.05;;;1.20;;
27925;SDS011;15267;47.838;12.128;2023-01-10T00:40:57;1.35;;;0.90;;
27925;SDS011;15267;47.838;12.128;2023-01-10T00:43:23;2.22;;;1.20;;
27925;SDS011;15267;47.838;12.128;2023-01-10T00:46:08;2.90;;;1.50;;
27925;SDS011;15267;47.838;12.128;2023-01-10T00:48:34;2.83;;;1.88;;
27925;SDS011;15267;47.838;12.128;2023-01-10T00:51:00;1.23;;;0.82;;
27925;SDS011;15267;47.838;12.128;2023-01-10T00:53:26;6.05;;;3.13;;
27925;SDS011;15267;47.838;12.128;2023-01-10T00:55:53;1.08;;;0.80;;
27925;SDS011;15267;47.838;12.128;2023-01-10T00:58:19;3.25;;;1.45;;
27925;SDS011;15267;47.838;12.128;2023-01-10T01:00:45;1.92;;;1.17;;
27925;SDS011;15267;47.838;12.128;2023-01-10T01:03:13;1.17;;;0.90;;
27925;SDS011;15267;47.838;12.128;2023-01-10T01:05:43;0.60;;;0.60;;
27925;SDS011;15267;47.838;12.128;2023-01-10T01:08:09;1.67;;;0.80;;
27925;SDS011;15267;47.838;12.128;2023-01-10T01:10:35;0.95;;;0.60;;
27925;SDS011;15267;47.838;12.128;2023-01-10T01:13:06;0.68;;;0.68;;
27925;SDS011;15267;47.838;12.128;2023-01-10T01:15:32;0.77;;;0.60;;
27925;SDS011;15267;47.838;12.128;2023-01-10T01:17:59;1.00;;;0.70;;
27925;SDS011;15267;47.838;12.128;2023-01-10T01:20:25;1.05;;;0.70;;
27925;SDS011;15267;47.838;12.128;2023-01-10T01:22:51;1.17;;;0.82;;
27925;SDS011;15267;47.838;12.128;2023-01-10T01:25:17;1.25;;;0.80;;
27925;SDS011;15267;47.838;12.128;2023-01-10T01:27:43;0.77;;;0.77;;
27925;SDS011;15267;47.838;12.128;2023-01-10T01:30:09;1.00;;;0.80;;
27925;SDS011;15267;47.838;12.128;2023-01-10T01:32:35;0.70;;;0.70;;
27925;SDS011;15267;47.838;12.128;2023-01-10T01:35:01;1.83;;;0.90;;
27925;SDS011;15267;47.838;12.128;2023-01-10T01:37:27;2.05;;;0.80;;
27925;SDS011;15267;47.838;12.128;2023-01-10T01:39:53;1.10;;;0.95;;
27925;SDS011;15267;47.838;12.128;2023-01-10T01:42:24;0.90;;;0.90;;
27925;SDS011;15267;47.838;12.128;2023-01-10T01:47:51;1.08;;;0.70;;
27925;SDS011;15267;47.838;12.128;2023-01-10T01:50:20;1.58;;;0.80;;
27925;SDS011;15267;47.838;12.128;2023-01-10T01:52:47;2.90;;;1.60;;
27925;SDS011;15267;47.838;12.128;2023-01-10T01:55:16;0.93;;;0.60;;
27925;SDS011;15267;47.838;12.128;2023-01-10T01:57:42;0.95;;;0.65;;
27925;SDS011;15267;47.838;12.128;2023-01-10T02:00:09;2.70;;;0.95;;
27925;SDS011;15267;47.838;12.128;2023-01-10T02:02:36;0.90;;;0.75;;
27925;SDS011;15267;47.838;12.128;2023-01-10T02:05:06;1.02;;;0.90;;
27925;SDS011;15267;47.838;12.128;2023-01-10T02:07:33;1.15;;;0.70;;
27925;SDS011;15267;47.838;12.128;2023-01-10T02:12:46;2.88;;;0.80;;
27925;SDS011;15267;47.838;12.128;2023-01-10T02:15:14;0.68;;;0.60;;
27925;SDS011;15267;47.838;12.128;2023-01-10T02:17:40;1.33;;;0.60;;
27925;SDS011;15267;47.838;12.128;2023-01-10T02:20:07;0.50;;;0.50;;
27925;SDS011;15267;47.838;12.128;2023-01-10T02:30:32;0.95;;;0.75;;
27925;SDS011;15267;47.838;12.128;2023-01-10T02:33:04;2.33;;;0.73;;
27925;SDS011;15267;47.838;12.128;2023-01-10T02:38:15;1.92;;;0.88;;
27925;SDS011;15267;47.838;12.128;2023-01-10T02:43:38;2.05;;;0.90;;
27925;SDS011;15267;47.838;12.128;2023-01-10T02:46:10;1.20;;;0.90;;
27925;SDS011;15267;47.838;12.128;2023-01-10T02:48:38;3.20;;;0.93;;
27925;SDS011;15267;47.838;12.128;2023-01-10T02:51:18;1.92;;;0.90;;
27925;SDS011;15267;47.838;12.128;2023-01-10T02:53:48;2.10;;;0.68;;
27925;SDS011;15267;47.838;12.128;2023-01-10T03:01:47;1.92;;;0.90;;
27925;SDS011;15267;47.838;12.128;2023-01-10T03:04:23;2.25;;;0.93;;
27925;SDS011;15267;47.838;12.128;2023-01-10T03:07:00;0.82;;;0.73;;
27925;SDS011;15267;47.838;12.128;2023-01-10T03:09:31;4.63;;;0.82;;
27925;SDS011;15267;47.838;12.128;2023-01-10T03:12:05;1.20;;;0.80;;
27925;SDS011;15267;47.838;12.128;2023-01-10T03:14:33;3.35;;;0.80;;
27925;SDS011;15267;47.838;12.128;2023-01-10T03:17:03;1.58;;;0.80;;
27925;SDS011;15267;47.838;12.128;2023-01-10T03:19:32;1.95;;;0.80;;
27925;SDS011;15267;47.838;12.128;2023-01-10T03:21:59;1.98;;;0.90;;
27925;SDS011;15267;47.838;12.128;2023-01-10T03:24:30;1.25;;;0.93;;
27925;SDS011;15267;47.838;12.128;2023-01-10T03:27:03;1.75;;;0.80;;
27925;SDS011;15267;47.838;12.128;2023-01-10T03:29:32;1.42;;;0.70;;
27925;SDS011;15267;47.838;12.128;2023-01-10T03:32:03;1.70;;;0.77;;
27925;SDS011;15267;47.838;12.128;2023-01-10T03:34:29;1.58;;;0.90;;
27925;SDS011;15267;47.838;12.128;2023-01-10T03:37:02;1.67;;;0.73;;
27925;SDS011;15267;47.838;12.128;2023-01-10T03:41:58;4.53;;;0.80;;
27925;SDS011;15267;47.838;12.128;2023-01-10T03:47:21;1.55;;;0.85;;
27925;SDS011;15267;47.838;12.128;2023-01-10T03:49:49;1.10;;;0.60;;
27925;SDS011;15267;47.838;12.128;2023-01-10T03:52:18;1.45;;;0.73;;
27925;SDS011;15267;47.838;12.128;2023-01-10T03:54:45;1.90;;;0.63;;
27925;SDS011;15267;47.838;12.128;2023-01-10T03:57:22;2.17;;;0.85;;
27925;SDS011;15267;47.838;12.128;2023-01-10T03:59:51;1.45;;;0.93;;
27925;SDS011;15267;47.838;12.128;2023-01-10T04:02:17;1.30;;;0.90;;
27925;SDS011;15267;47.838;12.128;2023-01-10T04:04:43;1.67;;;0.80;;
27925;SDS011;15267;47.838;12.128;2023-01-10T04:07:09;1.27;;;0.63;;
27925;SDS011;15267;47.838;12.128;2023-01-10T04:09:35;1.35;;;0.80;;
27925;SDS011;15267;47.838;12.128;2023-01-10T04:12:01;0.98;;;0.68;;
27925;SDS011;15267;47.838;12.128;2023-01-10T04:14:27;1.25;;;0.60;;
27925;SDS011;15267;47.838;12.128;2023-01-10T04:16:53;0.80;;;0.73;;
27925;SDS011;15267;47.838;12.128;2023-01-10T04:19:19;1.60;;;0.80;;
27925;SDS011;15267;47.838;12.128;2023-01-10T04:21:45;2.03;;;0.90;;
27925;SDS011;15267;47.838;12.128;2023-01-10T04:24:11;2.55;;;0.90;;
27925;SDS011;15267;47.838;12.128;2023-01-10T04:26:37;1.58;;;0.90;;
27925;SDS011;15267;47.838;12.128;2023-01-10T04:29:03;1.90;;;1.02;;
27925;SDS011;15267;47.838;12.128;2023-01-10T04:31:30;1.15;;;0.73;;
27925;SDS011;15267;47.838;12.128;2023-01-10T04:33:56;1.35;;;0.90;;
27925;SDS011;15267;47.838;12.128;2023-01-10T04:36:22;0.90;;;0.82;;
27925;SDS011;15267;47.838;12.128;2023-01-10T04:38:49;1.42;;;0.93;;
27925;SDS011;15267;47.838;12.128;2023-01-10T04:41:15;1.67;;;0.90;;
27925;SDS011;15267;47.838;12.128;2023-01-10T04:43:41;0.98;;;0.82;;
27925;SDS011;15267;47.838;12.128;2023-01-10T04:46:06;1.08;;;0.80;;
27925;SDS011;15267;47.838;12.128;2023-01-10T04:48:32;0.90;;;0.90;;
27925;SDS011;15267;47.838;12.128;2023-01-10T04:51:00;1.13;;;0.82;;
27925;SDS011;15267;47.838;12.128;2023-01-10T04:53:26;1.27;;;0.93;;
27925;SDS011;15267;47.838;12.128;2023-01-10T04:55:52;1.27;;;1.10;;
27925;SDS011;15267;47.838;12.128;2023-01-10T04:58:18;0.93;;;0.85;;
27925;SDS011;15267;47.838;12.128;2023-01-10T05:00:44;0.93;;;0.90;;
27925;SDS011;15267;47.838;12.128;2023-01-10T05:03:10;2.05;;;1.20;;
27925;SDS011;15267;47.838;12.128;2023-01-10T05:05:36;1.98;;;1.10;;
27925;SDS011;15267;47.838;12.128;2023-01-10T05:08:02;1.10;;;1.00;;
27925;SDS011;15267;47.838;12.128;2023-01-10T05:10:28;1.17;;;0.90;;
27925;SDS011;15267;47.838;12.128;2023-01-10T05:12:54;2.50;;;1.05;;
27925;SDS011;15267;47.838;12.128;2023-01-10T05:15:20;1.60;;;1.50;;
27925;SDS011;15267;47.838;12.128;2023-01-10T05:17:47;1.17;;;1.08;;
27925;SDS011;15267;47.838;12.128;2023-01-10T05:20:15;1.10;;;1.00;;
27925;SDS011;15267;47.838;12.128;2023-01-10T05:22:41;2.10;;;1.20;;
27925;SDS011;15267;47.838;12.128;2023-01-10T05:25:07;1.75;;;1.17;;
27925;SDS011;15267;47.838;12.128;2023-01-10T05:27:33;2.03;;;1.33;;
27925;SDS011;15267;47.838;12.128;2023-01-10T05:29:58;1.33;;;1.00;;
27925;SDS011;15267;47.838;12.128;2023-01-10T05:32:28;2.00;;;1.00;;
27925;SDS011;15267;47.838;12.128;2023-01-10T05:34:54;2.58;;;1.42;;
27925;SDS011;15267;47.838;12.128;2023-01-10T05:37:20;2.63;;;1.42;;
27925;SDS011;15267;47.838;12.128;2023-01-10T05:39:46;1.98;;;1.52;;
27925;SDS011;15267;47.838;12.128;2023-01-10T05:42:12;3.40;;;1.60;;
27925;SDS011;15267;47.838;12.128;2023-01-10T05:44:38;2.08;;;1.60;;
27925;SDS011;15267;47.838;12.128;2023-01-10T05:47:04;1.92;;;1.40;;
27925;SDS011;15267;47.838;12.128;2023-01-10T05:49:30;2.05;;;1.40;;
27925;SDS011;15267;47.838;12.128;2023-01-10T05:51:56;2.47;;;1.35;;
27925;SDS011;15267;47.838;12.128;2023-01-10T05:54:21;1.60;;;1.50;;
27925;SDS011;15267;47.838;12.128;2023-01-10T05:56:47;2.33;;;1.80;;
27925;SDS011;15267;47.838;12.128;2023-01-10T05:59:13;2.00;;;1.50;;
27925;SDS011;15267;47.838;12.128;2023-01-10T06:01:39;1.80;;;1.50;;
27925;SDS011;15267;47.838;12.128;2023-01-10T06:04:05;2.88;;;1.90;;
27925;SDS011;15267;47.838;12.128;2023-01-10T06:06:31;3.08;;;1.92;;
27925;SDS011;15267;47.838;12.128;2023-01-10T06:08:58;2.00;;;1.55;;
27925;SDS011;15267;47.838;12.128;2023-01-10T06:11:24;2.08;;;1.60;;
27925;SDS011;15267;47.838;12.128;2023-01-10T06:13:54;3.40;;;2.00;;
27925;SDS011;15267;47.838;12.128;2023-01-10T06:16:20;2.10;;;1.80;;
27925;SDS011;15267;47.838;12.128;2023-01-10T06:18:46;5.55;;;4.72;;
27925;SDS011;15267;47.838;12.128;2023-01-10T06:21:12;4.30;;;3.60;;
27925;SDS011;15267;47.838;12.128;2023-01-10T06:23:38;38.90;;;34.67;;
27925;SDS011;15267;47.838;12.128;2023-01-10T06:26:04;18.67;;;16.88;;
27925;SDS011;15267;47.838;12.128;2023-01-10T06:28:30;8.48;;;7.68;;
27925;SDS011;15267;47.838;12.128;2023-01-10T06:30:56;5.22;;;4.13;;
27925;SDS011;15267;47.838;12.128;2023-01-10T06:33:22;2.70;;;2.30;;
27925;SDS011;15267;47.838;12.128;2023-01-10T06:35:48;2.88;;;2.58;;
27925;SDS011;15267;47.838;12.128;2023-01-10T06:38:14;4.55;;;2.42;;
27925;SDS011;15267;47.838;12.128;2023-01-10T06:40:40;2.15;;;1.95;;
27925;SDS011;15267;47.838;12.128;2023-01-10T06:43:06;3.85;;;2.65;;
27925;SDS011;15267;47.838;12.128;2023-01-10T06:45:32;3.08;;;2.33;;
27925;SDS011;15267;47.838;12.128;2023-01-10T06:47:58;2.78;;;2.13;;
27925;SDS011;15267;47.838;12.128;2023-01-10T06:50:24;4.20;;;2.78;;
27925;SDS011;15267;47.838;12.128;2023-01-10T06:52:57;6.75;;;2.97;;
27925;SDS011;15267;47.838;12.128;2023-01-10T06:55:23;4.68;;;2.90;;
27925;SDS011;15267;47.838;12.128;2023-01-10T06:57:53;5.55;;;3.50;;
27925;SDS011;15267;47.838;12.128;2023-01-10T07:00:19;4.22;;;2.63;;
27925;SDS011;15267;47.838;12.128;2023-01-10T07:02:45;4.05;;;2.70;;
27925;SDS011;15267;47.838;12.128;2023-01-10T07:05:11;2.58;;;2.22;;
27925;SDS011;15267;47.838;12.128;2023-01-10T07:07:37;3.13;;;2.20;;
27925;SDS011;15267;47.838;12.128;2023-01-10T07:10:03;2.42;;;2.03;;
27925;SDS011;15267;47.838;12.128;2023-01-10T07:12:29;5.07;;;2.75;;
27925;SDS011;15267;47.838;12.128;2023-01-10T07:14:55;3.00;;;2.17;;
27925;SDS011;15267;47.838;12.128;2023-01-10T07:17:21;5.32;;;2.05;;
27925;SDS011;15267;47.838;12.128;2023-01-10T07:19:47;4.32;;;2.70;;
27925;SDS011;15267;47.838;12.128;2023-01-10T07:22:13;4.50;;;1.80;;
27925;SDS011;15267;47.838;12.128;2023-01-10T07:24:39;3.63;;;1.75;;
27925;SDS011;15267;47.838;12.128;2023-01-10T07:27:05;1.67;;;1.50;;
27925;SDS011;15267;47.838;12.128;2023-01-10T07:29:31;1.42;;;1.20;;
27925;SDS011;15267;47.838;12.128;2023-01-10T07:31:57;1.80;;;1.70;;
27925;SDS011;15267;47.838;12.128;2023-01-10T07:34:23;3.80;;;2.15;;
27925;SDS011;15267;47.838;12.128;2023-01-10T07:36:49;14.63;;;7.93;;
27925;SDS011;15267;47.838;12.128;2023-01-10T07:39:15;35.30;;;18.40;;
27925;SDS011;15267;47.838;12.128;2023-01-10T07:41:41;17.38;;;9.48;;
27925;SDS011;15267;47.838;12.128;2023-01-10T07:44:07;28.00;;;15.27;;
27925;SDS011;15267;47.838;12.128;2023-01-10T07:46:32;12.45;;;8.15;;
27925;SDS011;15267;47.838;12.128;2023-01-10T07:48:58;3.03;;;2.10;;
27925;SDS011;15267;47.838;12.128;2023-01-10T07:51:24;3.80;;;2.85;;
27925;SDS011;15267;47.838;12.128;2023-01-10T07:53:50;4.05;;;3.40;;
27925;SDS011;15267;47.838;12.128;2023-01-10T07:56:16;3.08;;;2.78;;
27925;SDS011;15267;47.838;12.128;2023-01-10T07:58:42;4.00;;;3.10;;
27925;SDS011;15267;47.838;12.128;2023-01-10T08:01:10;2.47;;;2.28;;
27925;SDS011;15267;47.838;12.128;2023-01-10T08:03:36;2.92;;;2.25;;
27925;SDS011;15267;47.838;12.128;2023-01-10T08:06:03;2.65;;;2.45;;
27925;SDS011;15267;47.838;12.128;2023-01-10T08:08:29;3.63;;;2.40;;
27925;SDS011;15267;47.838;12.128;2023-01-10T08:10:56;2.67;;;2.15;;
27925;SDS011;15267;47.838;12.128;2023-01-10T08:13:23;3.42;;;3.13;;
27925;SDS011;15267;47.838;12.128;2023-01-10T08:15:49;7.22;;;4.63;;
27925;SDS011;15267;47.838;12.128;2023-01-10T08:18:16;2.95;;;2.47;;
27925;SDS011;15267;47.838;12.128;2023-01-10T08:20:42;4.13;;;3.53;;
27925;SDS011;15267;47.838;12.128;2023-01-10T08:23:11;3.60;;;2.80;;
27925;SDS011;15267;47.838;12.128;2023-01-10T08:25:37;2.50;;;2.30;;
27925;SDS011;15267;47.838;12.128;2023-01-10T08:28:02;3.83;;;2.45;;
27925;SDS011;15267;47.838;12.128;2023-01-10T08:30:28;3.50;;;2.58;;
27925;SDS011;15267;47.838;12.128;2023-01-10T08:32:54;2.90;;;2.20;;
27925;SDS011;15267;47.838;12.128;2023-01-10T08:35:20;2.65;;;2.30;;
27925;SDS011;15267;47.838;12.128;2023-01-10T08:37:46;3.13;;;2.20;;
27925;SDS011;15267;47.838;12.128;2023-01-10T08:40:12;2.63;;;2.15;;
27925;SDS011;15267;47.838;12.128;2023-01-10T08:42:38;3.15;;;2.50;;
27925;SDS011;15267;47.838;12.128;2023-01-10T08:45:05;3.78;;;2.88;;
27925;SDS011;15267;47.838;12.128;2023-01-10T08:47:31;2.38;;;1.98;;
27925;SDS011;15267;47.838;12.128;2023-01-10T08:49:57;5.80;;;2.60;;
27925;SDS011;15267;47.838;12.128;2023-01-10T08:52:23;2.35;;;2.15;;
27925;SDS011;15267;47.838;12.128;2023-01-10T08:54:49;4.03;;;2.30;;
27925;SDS011;15267;47.838;12.128;2023-01-10T08:57:15;3.38;;;2.90;;
27925;SDS011;15267;47.838;12.128;2023-01-10T08:59:41;3.65;;;2.78;;
27925;SDS011;15267;47.838;12.128;2023-01-10T09:02:08;5.13;;;2.90;;
27925;SDS011;15267;47.838;12.128;2023-01-10T09:04:37;2.72;;;2.42;;
27925;SDS011;15267;47.838;12.128;2023-01-10T09:07:03;3.85;;;2.40;;
27925;SDS011;15267;47.838;12.128;2023-01-10T09:09:29;4.00;;;2.50;;
27925;SDS011;15267;47.838;12.128;2023-01-10T09:11:54;4.85;;;3.08;;
27925;SDS011;15267;47.838;12.128;2023-01-10T09:14:21;4.18;;;2.58;;
27925;SDS011;15267;47.838;12.128;2023-01-10T09:16:48;4.03;;;2.90;;
27925;SDS011;15267;47.838;12.128;2023-01-10T09:19:15;4.40;;;2.90;;
27925;SDS011;15267;47.838;12.128;2023-01-10T09:21:41;5.40;;;3.53;;
27925;SDS011;15267;47.838;12.128;2023-01-10T09:24:07;5.70;;;3.83;;
27925;SDS011;15267;47.838;12.128;2023-01-10T09:26:33;6.00;;;3.42;;
27925;SDS011;15267;47.838;12.128;2023-01-10T09:28:59;5.43;;;2.80;;
27925;SDS011;15267;47.838;12.128;2023-01-10T09:31:25;5.95;;;3.25;;
27925;SDS011;15267;47.838;12.128;2023-01-10T09:33:51;5.20;;;3.20;;
27925;SDS011;15267;47.838;12.128;2023-01-10T09:36:17;6.18;;;3.78;;
27925;SDS011;15267;47.838;12.128;2023-01-10T09:38:43;5.60;;;3.40;;
27925;SDS011;15267;47.838;12.128;2023-01-10T09:43:58;4.60;;;2.97;;
27925;SDS011;15267;47.838;12.128;2023-01-10T09:51:32;3.90;;;2.80;;
27925;SDS011;15267;47.838;12.128;2023-01-10T09:54:00;7.43;;;3.38;;
27925;SDS011;15267;47.838;12.128;2023-01-10T09:56:27;6.90;;;2.42;;
27925;SDS011;15267;47.838;12.128;2023-01-10T09:58:54;5.40;;;2.90;;
27925;SDS011;15267;47.838;12.128;2023-01-10T10:01:22;5.28;;;2.33;;
27925;SDS011;15267;47.838;12.128;2023-01-10T10:03:52;6.57;;;2.53;;
27925;SDS011;15267;47.838;12.128;2023-01-10T10:06:19;4.00;;;2.30;;
27925;SDS011;15267;47.838;12.128;2023-01-10T10:08:46;4.05;;;1.85;;
27925;SDS011;15267;47.838;12.128;2023-01-10T10:21:45;6.20;;;2.08;;
27925;SDS011;15267;47.838;12.128;2023-01-10T10:24:26;6.88;;;2.00;;
27925;SDS011;15267;47.838;12.128;2023-01-10T10:34:34;5.50;;;2.08;;
27925;SDS011;15267;47.838;12.128;2023-01-10T10:37:03;4.88;;;2.00;;
27925;SDS011;15267;47.838;12.128;2023-01-10T10:39:35;4.05;;;2.08;;
27925;SDS011;15267;47.838;12.128;2023-01-10T10:42:02;5.28;;;2.28;;
27925;SDS011;15267;47.838;12.128;2023-01-10T10:47:00;5.78;;;2.72;;
27925;SDS011;15267;47.838;12.128;2023-01-10T10:49:43;4.50;;;2.25;;
27925;SDS011;15267;47.838;12.128;2023-01-10T10:52:13;8.07;;;2.70;;
27925;SDS011;15267;47.838;12.128;2023-01-10T10:54:41;6.00;;;2.30;;
27925;SDS011;15267;47.838;12.128;2023-01-10T10:57:08;7.85;;;3.15;;
27925;SDS011;15267;47.838;12.128;2023-01-10T10:59:34;7.90;;;2.72;;
27925;SDS011;15267;47.838;12.128;2023-01-10T11:02:01;5.35;;;3.10;;
27925;SDS011;15267;47.838;12.128;2023-01-10T11:04:27;8.63;;;2.70;;
27925;SDS011;15267;47.838;12.128;2023-01-10T11:06:53;4.50;;;2.40;;
27925;SDS011;15267;47.838;12.128;2023-01-10T11:09:20;6.43;;;3.28;;
27925;SDS011;15267;47.838;12.128;2023-01-10T11:11:57;6.93;;;2.75;;
27925;SDS011;15267;47.838;12.128;2023-01-10T11:14:40;4.82;;;2.20;;
27925;SDS011;15267;47.838;12.128;2023-01-10T11:17:25;5.45;;;2.10;;
27925;SDS011;15267;47.838;12.128;2023-01-10T11:20:03;5.97;;;2.35;;
27925;SDS011;15267;47.838;12.128;2023-01-10T11:22:37;6.78;;;2.10;;
27925;SDS011;15267;47.838;12.128;2023-01-10T11:25:04;7.10;;;2.05;;
27925;SDS011;15267;47.838;12.128;2023-01-10T11:27:35;5.32;;;2.20;;
27925;SDS011;15267;47.838;12.128;2023-01-10T11:30:06;5.72;;;2.20;;
27925;SDS011;15267;47.838;12.128;2023-01-10T11:32:34;7.22;;;2.80;;
27925;SDS011;15267;47.838;12.128;2023-01-10T11:35:03;5.82;;;1.60;;
27925;SDS011;15267;47.838;12.128;2023-01-10T11:37:33;5.47;;;1.90;;
27925;SDS011;15267;47.838;12.128;2023-01-10T11:42:40;4.95;;;2.03;;
27925;SDS011;15267;47.838;12.128;2023-01-10T11:47:42;7.15;;;2.13;;
27925;SDS011;15267;47.838;12.128;2023-01-10T11:50:08;5.32;;;1.40;;
27925;SDS011;15267;47.838;12.128;2023-01-10T11:52:35;5.82;;;1.90;;
27925;SDS011;15267;47.838;12.128;2023-01-10T11:55:01;6.35;;;1.80;;
27925;SDS011;15267;47.838;12.128;2023-01-10T11:57:31;11.35;;;4.30;;
27925;SDS011;15267;47.838;12.128;2023-01-10T11:59:59;4.35;;;1.50;;
27925;SDS011;15267;47.838;12.128;2023-01-10T12:02:32;5.88;;;2.20;;
27925;SDS011;15267;47.838;12.128;2023-01-10T12:07:25;5.15;;;2.03;;
27925;SDS011;15267;47.838;12.128;2023-01-10T12:10:01;5.05;;;1.38;;
27925;SDS011;15267;47.838;12.128;2023-01-10T12:12:31;7.93;;;1.80;;
27925;SDS011;15267;47.838;12.128;2023-01-10T12:14:58;7.82;;;1.85;;
27925;SDS011;15267;47.838;12.128;2023-01-10T12:17:28;8.80;;;2.30;;
27925;SDS011;15267;47.838;12.128;2023-01-10T12:19:56;6.00;;;2.15;;
27925;SDS011;15267;47.838;12.128;2023-01-10T12:24:56;7.40;;;1.75;;
27925;SDS011;15267;47.838;12.128;2023-01-10T12:27:23;4.03;;;1.60;;
27925;SDS011;15267;47.838;12.128;2023-01-10T12:30:00;4.68;;;1.67;;
27925;SDS011;15267;47.838;12.128;2023-01-10T12:32:28;7.10;;;1.50;;
27925;SDS011;15267;47.838;12.128;2023-01-10T12:34:57;4.30;;;1.55;;
27925;SDS011;15267;47.838;12.128;2023-01-10T12:37:27;5.97;;;1.73;;
27925;SDS011;15267;47.838;12.128;2023-01-10T12:40:03;4.60;;;1.77;;
27925;SDS011;15267;47.838;12.128;2023-01-10T12:42:43;6.90;;;1.90;;
27925;SDS011;15267;47.838;12.128;2023-01-10T12:45:31;8.25;;;2.40;;
27925;SDS011;15267;47.838;12.128;2023-01-10T12:48:44;3.97;;;2.00;;
27925;SDS011;15267;47.838;12.128;2023-01-10T12:50:45;5.70;;;1.85;;
27925;SDS011;15267;47.838;12.128;2023-01-10T12:53:23;8.70;;;2.20;;
27925;SDS011;15267;47.838;12.128;2023-01-10T12:55:51;9.20;;;2.35;;
27925;SDS011;15267;47.838;12.128;2023-01-10T12:58:19;8.73;;;2.42;;
27925;SDS011;15267;47.838;12.128;2023-01-10T13:00:48;4.70;;;2.42;;
27925;SDS011;15267;47.838;12.128;2023-01-10T13:03:18;5.53;;;2.90;;
27925;SDS011;15267;47.838;12.128;2023-01-10T13:05:44;9.00;;;2.63;;
27925;SDS011;15267;47.838;12.128;2023-01-10T13:08:13;7.78;;;2.50;;
27925;SDS011;15267;47.838;12.128;2023-01-10T13:10:40;6.65;;;2.15;;
27925;SDS011;15267;47.838;12.128;2023-01-10T13:18:22;8.07;;;2.25;;
27925;SDS011;15267;47.838;12.128;2023-01-10T13:20:50;7.32;;;2.28;;
27925;SDS011;15267;47.838;12.128;2023-01-10T13:23:27;7.38;;;3.10;;
27925;SDS011;15267;47.838;12.128;2023-01-10T13:26:12;6.10;;;1.98;;
27925;SDS011;15267;47.838;12.128;2023-01-10T13:28:38;10.05;;;4.03;;
27925;SDS011;15267;47.838;12.128;2023-01-10T13:31:21;6.95;;;2.70;;
27925;SDS011;15267;47.838;12.128;2023-01-10T13:34:07;9.30;;;2.63;;
27925;SDS011;15267;47.838;12.128;2023-01-10T13:36:36;7.47;;;2.10;;
27925;SDS011;15267;47.838;12.128;2023-01-10T13:39:03;8.18;;;2.15;;
27925;SDS011;15267;47.838;12.128;2023-01-10T14:00:52;6.20;;;2.30;;
27925;SDS011;15267;47.838;12.128;2023-01-10T14:03:39;6.87;;;1.87;;
27925;SDS011;15267;47.838;12.128;2023-01-10T14:06:08;4.10;;;1.58;;
27925;SDS011;15267;47.838;12.128;2023-01-10T14:08:35;6.78;;;2.17;;
27925;SDS011;15267;47.838;12.128;2023-01-10T14:11:11;7.50;;;2.10;;
27925;SDS011;15267;47.838;12.128;2023-01-10T14:13:37;7.38;;;2.00;;
27925;SDS011;15267;47.838;12.128;2023-01-10T14:16:27;5.78;;;2.10;;
27925;SDS011;15267;47.838;12.128;2023-01-10T14:18:53;6.90;;;2.33;;
27925;SDS011;15267;47.838;12.128;2023-01-10T14:21:23;6.20;;;2.03;;
27925;SDS011;15267;47.838;12.128;2023-01-10T14:23:50;5.43;;;2.20;;
27925;SDS011;15267;47.838;12.128;2023-01-10T14:26:27;9.00;;;2.15;;
27925;SDS011;15267;47.838;12.128;2023-01-10T14:28:54;7.03;;;2.58;;
27925;SDS011;15267;47.838;12.128;2023-01-10T14:31:21;7.45;;;3.17;;
27925;SDS011;15267;47.838;12.128;2023-01-10T14:33:49;7.38;;;2.58;;
27925;SDS011;15267;47.838;12.128;2023-01-10T14:36:17;6.97;;;3.05;;
27925;SDS011;15267;47.838;12.128;2023-01-10T14:38:45;6.03;;;3.28;;
27925;SDS011;15267;47.838;12.128;2023-01-10T14:41:16;6.57;;;2.28;;
27925;SDS011;15267;47.838;12.128;2023-01-10T14:43:52;6.07;;;1.98;;
27925;SDS011;15267;47.838;12.128;2023-01-10T14:46:23;5.35;;;1.90;;
27925;SDS011;15267;47.838;12.128;2023-01-10T14:48:51;5.88;;;1.95;;
27925;SDS011;15267;47.838;12.128;2023-01-10T14:51:29;7.38;;;1.90;;
27925;SDS011;15267;47.838;12.128;2023-01-10T14:53:56;5.00;;;1.90;;
27925;SDS011;15267;47.838;12.128;2023-01-10T14:56:25;5.82;;;2.00;;
27925;SDS011;15267;47.838;12.128;2023-01-10T14:58:52;5.05;;;1.60;;
27925;SDS011;15267;47.838;12.128;2023-01-10T15:01:25;7.70;;;1.98;;
27925;SDS011;15267;47.838;12.128;2023-01-10T15:06:17;5.82;;;2.40;;
27925;SDS011;15267;47.838;12.128;2023-01-10T15:08:43;3.20;;;1.30;;
27925;SDS011;15267;47.838;12.128;2023-01-10T15:11:10;5.78;;;2.03;;
27925;SDS011;15267;47.838;12.128;2023-01-10T15:13:40;4.78;;;1.40;;
27925;SDS011;15267;47.838;12.128;2023-01-10T15:16:12;5.55;;;1.40;;
27925;SDS011;15267;47.838;12.128;2023-01-10T15:18:44;4.85;;;1.55;;
27925;SDS011;15267;47.838;12.128;2023-01-10T15:21:11;5.03;;;2.17;;
27925;SDS011;15267;47.838;12.128;2023-01-10T15:23:39;7.50;;;1.77;;
27925;SDS011;15267;47.838;12.128;2023-01-10T15:26:06;7.70;;;2.10;;
27925;SDS011;15267;47.838;12.128;2023-01-10T15:28:34;6.07;;;1.70;;
27925;SDS011;15267;47.838;12.128;2023-01-10T15:31:02;5.32;;;1.40;;
27925;SDS011;15267;47.838;12.128;2023-01-10T15:33:29;7.32;;;2.22;;
27925;SDS011;15267;47.838;12.128;2023-01-10T15:36:01;5.53;;;2.20;;
27925;SDS011;15267;47.838;12.128;2023-01-10T15:38:27;7.32;;;2.38;;
27925;SDS011;15267;47.838;12.128;2023-01-10T15:40:59;4.80;;;2.30;;
27925;SDS011;15267;47.838;12.128;2023-01-10T15:43:29;7.35;;;2.47;;
27925;SDS011;15267;47.838;12.128;2023-01-10T15:45:55;7.30;;;2.10;;
27925;SDS011;15267;47.838;12.128;2023-01-10T15:51:48;6.93;;;3.50;;
27925;SDS011;15267;47.838;12.128;2023-01-10T15:53:51;8.90;;;3.90;;
27925;SDS011;15267;47.838;12.128;2023-01-10T15:56:21;6.97;;;3.20;;
27925;SDS011;15267;47.838;12.128;2023-01-10T15:58:47;10.70;;;4.40;;
27925;SDS011;15267;47.838;12.128;2023-01-10T16:01:14;6.43;;;3.22;;
27925;SDS011;15267;47.838;12.128;2023-01-10T16:03:45;18.85;;;10.77;;
27925;SDS011;15267;47.838;12.128;2023-01-10T16:06:19;11.55;;;5.72;;
27925;SDS011;15267;47.838;12.128;2023-01-10T16:08:47;7.18;;;2.95;;
27925;SDS011;15267;47.838;12.128;2023-01-10T16:11:16;8.48;;;3.30;;
27925;SDS011;15267;47.838;12.128;2023-01-10T16:14:03;6.72;;;3.17;;
27925;SDS011;15267;47.838;12.128;2023-01-10T16:16:29;9.13;;;4.22;;
27925;SDS011;15267;47.838;12.128;2023-01-10T16:18:55;12.13;;;5.15;;